createdAt,value
2019-05-03T00:00:11.449Z,9.12
2019-05-03T00:02:41.705Z,9.12
2019-05-03T00:05:12.511Z,9.17
2019-05-03T00:07:42.042Z,9.18
2019-05-03T00:10:09.344Z,9.08
2019-05-03T00:12:36.179Z,9.12
2019-05-03T00:15:07.727Z,9.09
2019-05-03T00:17:34.299Z,9.12
2019-05-03T00:20:02.329Z,9.03
2019-05-03T00:22:29.591Z,9.08
2019-05-03T00:25:05.284Z,9.11
2019-05-03T00:27:24.895Z,9.02
2019-05-03T00:29:52.391Z,9.10
2019-05-03T00:32:21.598Z,9.11
2019-05-03T00:34:52.059Z,9.08
2019-05-03T00:37:22.089Z,9.03
2019-05-03T00:39:52.384Z,9.03
2019-05-03T00:42:20.082Z,9.00
2019-05-03T00:44:46.723Z,8.99
2019-05-03T00:47:13.457Z,8.92
2019-05-03T00:49:40.103Z,8.95
2019-05-03T00:52:06.861Z,8.91
2019-05-03T00:54:33.671Z,8.86
2019-05-03T00:57:02.546Z,8.93
2019-05-03T00:59:29.009Z,8.89
2019-05-03T01:01:55.691Z,8.93
2019-05-03T01:04:22.436Z,8.88
2019-05-03T01:06:49.181Z,8.84
2019-05-03T01:09:17.657Z,8.85
2019-05-03T01:11:44.403Z,8.76
2019-05-03T01:14:11.991Z,8.77
2019-05-03T01:16:38.937Z,8.74
2019-05-03T01:19:05.507Z,8.83
2019-05-03T01:21:32.165Z,8.75
2019-05-03T01:23:58.875Z,8.86
2019-05-03T01:26:25.536Z,8.94
2019-05-03T01:28:52.443Z,9.13
2019-05-03T01:31:19.461Z,9.14
2019-05-03T01:33:46.034Z,9.28
2019-05-03T01:36:12.944Z,9.39
2019-05-03T01:38:39.511Z,9.39
2019-05-03T01:41:06.194Z,9.36
2019-05-03T01:43:32.799Z,9.52
2019-05-03T01:45:59.590Z,9.63
2019-05-03T01:48:28.169Z,9.57
2019-05-03T01:50:56.768Z,9.74
2019-05-03T01:53:25.313Z,9.76
2019-05-03T01:55:52.393Z,9.80
2019-05-03T01:58:22.363Z,9.95
2019-05-03T02:00:52.833Z,9.94
2019-05-03T02:03:21.841Z,9.89
2019-05-03T02:05:52.044Z,10.00
2019-05-03T02:08:18.914Z,9.98
2019-05-03T02:10:45.687Z,9.96
2019-05-03T02:13:12.400Z,10.13
2019-05-03T02:15:39.086Z,10.09
2019-05-03T02:18:05.926Z,10.14
2019-05-03T02:20:32.753Z,10.12
2019-05-03T02:22:59.474Z,10.17
2019-05-03T02:25:26.238Z,10.13
2019-05-03T02:27:54.424Z,10.27
2019-05-03T02:30:21.207Z,10.27
2019-05-03T02:32:47.878Z,10.29
2019-05-03T02:35:15.150Z,10.32
2019-05-03T02:37:44.343Z,10.36
2019-05-03T02:40:13.183Z,10.42
2019-05-03T02:42:42.144Z,10.42
2019-05-03T02:45:15.487Z,10.32
2019-05-03T02:47:47.028Z,10.29
2019-05-03T02:50:16.685Z,10.17
2019-05-03T02:52:45.563Z,10.18
2019-05-03T02:55:15.636Z,10.06
2019-05-03T02:57:41.692Z,10.05
2019-05-03T03:00:12.170Z,9.98
2019-05-03T03:02:40.523Z,9.97
2019-05-03T03:05:09.559Z,10.09
2019-05-03T03:07:37.838Z,9.87
2019-05-03T03:10:06.412Z,9.98
2019-05-03T03:12:36.995Z,10.04
2019-05-03T03:15:06.238Z,10.04
2019-05-03T03:17:36.165Z,10.13
2019-05-03T03:20:05.814Z,10.07
2019-05-03T03:22:36.254Z,10.05
2019-05-03T03:25:06.175Z,10.06
2019-05-03T03:27:38.474Z,10.20
2019-05-03T03:30:12.453Z,10.23
2019-05-03T03:32:40.358Z,10.37
2019-05-03T03:35:14.891Z,10.40
2019-05-03T03:37:41.624Z,10.48
2019-05-03T03:40:08.452Z,10.78
2019-05-03T03:42:39.451Z,10.84
2019-05-03T03:45:06.751Z,10.83
2019-05-03T03:47:37.218Z,10.97
2019-05-03T03:50:05.934Z,11.03
2019-05-03T03:52:35.863Z,11.08
2019-05-03T03:55:06.186Z,11.25
2019-05-03T03:57:35.665Z,11.26
2019-05-03T04:00:06.812Z,11.35
2019-05-03T04:02:35.392Z,11.24
2019-05-03T04:05:05.558Z,11.20
2019-05-03T04:07:36.111Z,11.35
2019-05-03T04:10:06.574Z,11.30
2019-05-03T04:12:35.231Z,11.19
2019-05-03T04:15:06.333Z,11.36
2019-05-03T04:17:36.115Z,11.36
2019-05-03T04:20:06.698Z,11.30
2019-05-03T04:22:36.336Z,11.15
2019-05-03T04:25:05.991Z,11.35
2019-05-03T04:27:36.429Z,11.38
2019-05-03T04:30:05.971Z,11.39
2019-05-03T04:32:32.988Z,11.51
2019-05-03T04:34:59.726Z,11.31
2019-05-03T04:37:29.596Z,11.31
2019-05-03T04:39:56.266Z,11.27
2019-05-03T04:42:25.362Z,11.18
2019-05-03T04:44:51.946Z,11.31
2019-05-03T04:47:18.517Z,11.23
2019-05-03T04:49:46.321Z,11.27
2019-05-03T04:52:16.232Z,11.02
2019-05-03T04:54:45.206Z,11.04
2019-05-03T04:57:12.134Z,11.00
2019-05-03T04:59:38.819Z,10.92
2019-05-03T05:02:06.264Z,10.83
2019-05-03T05:04:35.511Z,10.79
2019-05-03T05:07:01.891Z,10.87
2019-05-03T05:09:28.518Z,10.72
2019-05-03T05:11:55.274Z,10.56
2019-05-03T05:14:22.150Z,10.80
2019-05-03T05:16:48.792Z,10.74
2019-05-03T05:19:17.477Z,10.76
2019-05-03T05:21:46.073Z,10.58
2019-05-03T05:24:15.041Z,10.70
2019-05-03T05:26:44.632Z,10.60
2019-05-03T05:29:14.582Z,10.78
2019-05-03T05:31:41.937Z,10.87
2019-05-03T05:34:09.089Z,11.04
2019-05-03T05:36:35.642Z,10.95
2019-05-03T05:39:05.320Z,10.81
2019-05-03T05:41:32.479Z,10.61
2019-05-03T05:43:59.227Z,10.80
2019-05-03T05:46:27.831Z,10.66
2019-05-03T05:48:55.536Z,10.84
2019-05-03T05:51:22.311Z,10.69
2019-05-03T05:53:48.978Z,10.57
2019-05-03T05:56:17.592Z,10.55
2019-05-03T05:58:46.344Z,10.42
2019-05-03T06:01:15.135Z,10.44
2019-05-03T06:03:42.003Z,10.39
2019-05-03T06:06:10.654Z,10.60
2019-05-03T06:08:39.221Z,10.63
2019-05-03T06:11:08.095Z,10.56
2019-05-03T06:13:36.751Z,10.56
2019-05-03T06:16:05.538Z,10.40
2019-05-03T06:18:35.334Z,10.45
2019-05-03T06:21:04.652Z,10.39
2019-05-03T06:23:34.763Z,10.42
2019-05-03T06:26:05.006Z,10.44
2019-05-03T06:28:35.255Z,10.25
2019-05-03T06:31:04.777Z,10.26
2019-05-03T06:33:31.889Z,10.42
2019-05-03T06:35:58.651Z,10.56
2019-05-03T06:38:25.224Z,10.32
2019-05-03T06:40:54.379Z,10.28
2019-05-03T06:43:21.273Z,10.39
2019-05-03T06:45:50.358Z,10.29
2019-05-03T06:48:17.715Z,10.42
2019-05-03T06:50:45.486Z,10.32
2019-05-03T06:53:13.035Z,10.38
2019-05-03T06:55:45.544Z,10.19
2019-05-03T06:58:09.157Z,10.24
2019-05-03T07:00:37.945Z,10.33
2019-05-03T07:03:06.606Z,10.35
2019-05-03T07:05:35.480Z,10.60
2019-05-03T07:08:05.553Z,10.42
2019-05-03T07:10:35.318Z,10.33
2019-05-03T07:13:05.073Z,10.23
2019-05-03T07:15:32.384Z,10.32
2019-05-03T07:17:59.141Z,10.34
2019-05-03T07:20:26.203Z,10.38
2019-05-03T07:22:55.691Z,10.41
2019-05-03T07:25:25.313Z,10.37
2019-05-03T07:27:55.286Z,10.47
2019-05-03T07:30:21.830Z,10.25
2019-05-03T07:32:50.355Z,10.40
2019-05-03T07:35:17.088Z,10.21
2019-05-03T07:37:45.072Z,10.50
2019-05-03T07:40:14.710Z,10.27
2019-05-03T07:42:42.605Z,10.23
2019-05-03T07:45:11.817Z,10.40
2019-05-03T07:47:38.499Z,10.19
2019-05-03T07:50:05.784Z,10.58
2019-05-03T07:52:34.748Z,10.55
2019-05-03T07:55:01.996Z,10.65
2019-05-03T07:57:30.648Z,10.59
2019-05-03T07:59:57.371Z,10.37
2019-05-03T08:02:27.100Z,10.08
2019-05-03T08:04:54.804Z,10.37
2019-05-03T08:07:23.047Z,10.32
2019-05-03T08:09:50.197Z,10.33
2019-05-03T08:12:16.853Z,10.24
2019-05-03T08:14:44.666Z,10.32
2019-05-03T08:17:11.913Z,10.14
2019-05-03T08:19:38.621Z,10.29
2019-05-03T08:22:05.458Z,10.38
2019-05-03T08:24:32.130Z,10.49
2019-05-03T08:26:58.959Z,10.40
2019-05-03T08:29:25.611Z,10.19
2019-05-03T08:31:55.274Z,10.18
2019-05-03T08:34:25.781Z,10.30
2019-05-03T08:37:50.990Z,10.44
2019-05-03T08:40:18.564Z,10.18
2019-05-03T08:42:46.563Z,10.36
2019-05-03T08:45:16.477Z,10.34
2019-05-03T08:47:44.852Z,10.43
2019-05-03T08:50:15.097Z,10.38
2019-05-03T08:52:40.618Z,10.31
2019-05-03T08:55:07.620Z,10.36
2019-05-03T08:57:35.398Z,10.26
2019-05-03T09:00:07.865Z,10.41
2019-05-03T09:02:34.631Z,10.12
2019-05-03T09:05:01.425Z,10.46
2019-05-03T09:07:28.322Z,10.81
2019-05-03T09:09:56.962Z,10.32
2019-05-03T09:12:25.187Z,9.98
2019-05-03T09:14:52.232Z,10.37
2019-05-03T09:17:18.886Z,10.62
2019-05-03T09:19:45.700Z,10.80
2019-05-03T09:22:12.292Z,10.36
2019-05-03T09:24:39.136Z,10.33
2019-05-03T09:27:05.939Z,10.32
2019-05-03T09:29:41.052Z,10.42
2019-05-03T09:32:01.364Z,10.42
2019-05-03T09:34:28.106Z,10.85
2019-05-03T09:36:55.366Z,10.83
2019-05-03T09:39:22.134Z,11.07
2019-05-03T09:41:48.706Z,11.25
2019-05-03T09:44:15.560Z,11.06
2019-05-03T09:46:42.187Z,11.13
2019-05-03T09:49:13.253Z,10.96
2019-05-03T09:51:37.483Z,11.17
2019-05-03T09:54:06.072Z,11.31
2019-05-03T09:56:34.807Z,11.10
2019-05-03T09:59:05.309Z,11.41
2019-05-03T10:01:32.015Z,11.22
2019-05-03T10:03:58.992Z,11.35
2019-05-03T10:06:25.588Z,11.27
2019-05-03T10:08:52.362Z,11.08
2019-05-03T10:11:18.934Z,11.27
2019-05-03T10:13:48.284Z,11.53
2019-05-03T10:16:15.568Z,11.75
2019-05-03T10:18:42.783Z,11.74
2019-05-03T10:21:09.594Z,11.54
2019-05-03T10:23:38.056Z,11.84
2019-05-03T10:26:05.237Z,11.52
2019-05-03T10:28:32.457Z,11.69
2019-05-03T10:31:00.925Z,11.94
2019-05-03T10:33:30.036Z,11.75
2019-05-03T10:35:56.912Z,12.09
2019-05-03T10:38:24.621Z,12.02
2019-05-03T10:40:51.390Z,12.13
2019-05-03T10:43:17.988Z,12.54
2019-05-03T10:45:45.046Z,12.43
2019-05-03T10:48:12.775Z,12.13
2019-05-03T10:50:40.290Z,12.42
2019-05-03T10:53:09.092Z,12.45
2019-05-03T10:55:35.915Z,12.88
2019-05-03T10:58:05.313Z,12.88
2019-05-03T11:00:48.236Z,13.10
2019-05-03T11:03:05.126Z,12.96
2019-05-03T11:05:32.064Z,13.32
2019-05-03T11:07:58.732Z,13.71
2019-05-03T11:10:25.463Z,13.95
2019-05-03T11:12:52.167Z,14.24
2019-05-03T11:15:19.039Z,14.21
2019-05-03T11:17:45.950Z,13.31
2019-05-03T11:20:28.472Z,13.63
2019-05-03T11:22:47.092Z,14.26
2019-05-03T11:25:13.872Z,13.56
2019-05-03T11:27:44.606Z,13.70
2019-05-03T11:30:11.806Z,13.68
2019-05-03T11:32:40.375Z,13.23
2019-05-03T11:35:11.676Z,13.90
2019-05-03T11:37:40.704Z,14.45
2019-05-03T11:40:08.264Z,14.55
2019-05-03T11:42:35.324Z,14.74
2019-05-03T11:45:06.587Z,14.44
2019-05-03T11:47:34.830Z,14.45
2019-05-03T11:50:05.469Z,13.49
2019-05-03T11:52:32.073Z,13.54
2019-05-03T11:54:58.884Z,13.73
2019-05-03T11:57:27.401Z,14.65
2019-05-03T11:59:54.874Z,14.81
2019-05-03T12:02:24.757Z,15.16
2019-05-03T12:04:51.508Z,14.88
2019-05-03T12:07:20.128Z,14.97
2019-05-03T12:09:46.688Z,14.64
2019-05-03T12:12:15.234Z,14.82
2019-05-03T12:14:45.296Z,15.08
2019-05-03T12:17:21.023Z,14.70
2019-05-03T12:19:44.144Z,14.39
2019-05-03T12:22:12.182Z,15.07
2019-05-03T12:24:39.976Z,14.57
2019-05-03T12:27:07.099Z,14.76
2019-05-03T12:29:35.265Z,14.48
2019-05-03T12:32:02.492Z,14.61
2019-05-03T12:34:29.205Z,14.76
2019-05-03T12:36:55.770Z,14.96
2019-05-03T12:39:27.375Z,14.75
2019-05-03T12:41:51.166Z,14.47
2019-05-03T12:44:17.757Z,14.41
2019-05-03T12:46:44.999Z,15.25
2019-05-03T12:49:12.071Z,15.85
2019-05-03T12:51:38.650Z,15.87
2019-05-03T12:54:05.254Z,15.77
2019-05-03T12:56:32.934Z,15.67
2019-05-03T12:59:02.498Z,15.79
2019-05-03T13:01:41.021Z,15.25
2019-05-03T13:04:02.592Z,14.92
2019-05-03T13:06:31.121Z,15.47
2019-05-03T13:08:57.878Z,15.84
2019-05-03T13:11:25.162Z,15.50
2019-05-03T13:13:51.960Z,15.50
2019-05-03T13:16:20.055Z,15.29
2019-05-03T13:18:47.124Z,15.42
2019-05-03T13:21:13.921Z,16.14
2019-05-03T13:23:40.621Z,15.38
2019-05-03T13:26:07.707Z,15.00
2019-05-03T13:28:34.632Z,15.15
2019-05-03T13:31:01.621Z,14.47
2019-05-03T13:33:28.262Z,14.62
2019-05-03T13:35:55.247Z,14.90
2019-05-03T13:38:22.303Z,15.22
2019-05-03T13:40:48.948Z,15.45
2019-05-03T13:43:15.526Z,15.76
2019-05-03T13:45:42.321Z,15.98
2019-05-03T13:48:09.099Z,16.16
2019-05-03T13:50:36.975Z,16.56
2019-05-03T13:53:04.835Z,16.47
2019-05-03T13:55:32.069Z,16.50
2019-05-03T13:57:58.968Z,16.97
2019-05-03T14:00:25.841Z,17.19
2019-05-03T14:02:52.599Z,15.86
2019-05-03T14:05:19.157Z,15.74
2019-05-03T14:07:45.764Z,16.68
2019-05-03T14:10:14.124Z,16.83
2019-05-03T14:12:41.000Z,16.70
2019-05-03T14:15:08.181Z,15.80
2019-05-03T14:17:36.104Z,15.79
2019-05-03T14:20:09.015Z,16.48
2019-05-03T14:22:37.708Z,16.96
2019-05-03T14:25:05.456Z,16.42
2019-05-03T14:27:34.836Z,16.28
2019-05-03T14:30:05.648Z,16.30
2019-05-03T14:32:35.697Z,16.43
2019-05-03T14:35:06.481Z,16.10
2019-05-03T14:37:34.989Z,15.91
2019-05-03T14:40:06.147Z,15.01
2019-05-03T14:42:32.720Z,14.90
2019-05-03T14:44:59.519Z,14.65
2019-05-03T14:47:26.207Z,15.28
2019-05-03T14:49:54.625Z,15.47
2019-05-03T14:52:21.398Z,16.27
2019-05-03T14:54:49.940Z,16.77
2019-05-03T14:57:18.400Z,16.96
2019-05-03T14:59:47.002Z,16.84
2019-05-03T15:02:15.685Z,16.19
2019-05-03T15:04:42.540Z,16.40
2019-05-03T15:07:09.137Z,16.53
2019-05-03T15:09:35.915Z,15.85
2019-05-03T15:12:05.362Z,15.65
2019-05-03T15:14:32.262Z,16.02
2019-05-03T15:16:58.910Z,16.49
2019-05-03T15:19:25.522Z,16.17
2019-05-03T15:21:52.134Z,15.58
2019-05-03T15:24:18.719Z,16.55
2019-05-03T15:26:45.412Z,16.00
2019-05-03T15:29:12.716Z,15.62
2019-05-03T15:31:39.296Z,15.04
2019-05-03T15:34:06.502Z,15.52
2019-05-03T15:36:33.155Z,14.74
2019-05-03T15:38:59.952Z,15.56
2019-05-03T15:41:26.621Z,16.30
2019-05-03T15:43:55.988Z,16.03
2019-05-03T15:46:25.201Z,15.76
2019-05-03T15:48:55.107Z,15.41
2019-05-03T15:51:22.066Z,15.00
2019-05-03T15:53:49.741Z,14.95
2019-05-03T15:56:16.559Z,14.55
2019-05-03T15:58:46.439Z,14.32
2019-05-03T16:01:11.618Z,14.09
2019-05-03T16:03:38.868Z,14.17
2019-05-03T16:06:05.561Z,13.89
2019-05-03T16:08:32.177Z,14.01
2019-05-03T16:10:58.953Z,14.11
2019-05-03T16:13:25.549Z,13.97
2019-05-03T16:15:55.027Z,13.93
2019-05-03T16:18:21.517Z,13.76
2019-05-03T16:20:48.341Z,13.64
2019-05-03T16:23:15.464Z,13.67
2019-05-03T16:25:42.499Z,13.64
2019-05-03T16:28:10.997Z,13.59
2019-05-03T16:30:38.864Z,13.61
2019-05-03T16:33:05.595Z,13.80
2019-05-03T16:35:32.215Z,13.79
2019-05-03T16:37:58.891Z,13.80
2019-05-03T16:40:25.603Z,13.87
2019-05-03T16:42:53.332Z,13.80
2019-05-03T16:45:22.497Z,13.68
2019-05-03T16:47:49.177Z,13.59
2019-05-03T16:50:16.541Z,13.84
2019-05-03T16:52:43.141Z,13.70
2019-05-03T16:55:10.025Z,13.62
2019-05-03T16:57:37.014Z,13.16
2019-05-03T17:00:06.215Z,13.27
2019-05-03T17:02:34.964Z,13.07
2019-05-03T17:05:05.166Z,12.95
2019-05-03T17:07:35.354Z,13.05
2019-05-03T17:10:07.841Z,12.93
2019-05-03T17:12:36.306Z,12.99
2019-05-03T17:15:06.479Z,12.83
2019-05-03T17:17:34.490Z,12.59
2019-05-03T17:20:06.080Z,12.65
2019-05-03T17:22:34.510Z,12.73
2019-05-03T17:25:04.379Z,12.84
2019-05-03T17:27:31.429Z,12.71
2019-05-03T17:29:58.197Z,12.72
2019-05-03T17:32:25.048Z,12.68
2019-05-03T17:34:51.730Z,12.44
2019-05-03T17:37:18.374Z,12.37
2019-05-03T17:39:46.987Z,12.46
2019-05-03T17:42:15.688Z,12.43
2019-05-03T17:44:45.133Z,12.46
2019-05-03T17:47:11.999Z,12.38
2019-05-03T17:49:38.585Z,12.35
2019-05-03T17:52:07.637Z,12.27
2019-05-03T17:54:36.405Z,12.22
2019-05-03T17:57:05.405Z,12.09
2019-05-03T17:59:35.074Z,12.05
2019-05-03T18:02:06.745Z,12.30
2019-05-03T18:04:35.227Z,12.37
2019-05-03T18:07:04.555Z,12.29
2019-05-03T18:09:34.640Z,12.12
2019-05-03T18:12:04.642Z,11.84
2019-05-03T18:14:31.670Z,11.93
2019-05-03T18:16:58.290Z,11.99
2019-05-03T18:19:24.975Z,11.86
2019-05-03T18:21:51.584Z,11.79
2019-05-03T18:24:18.218Z,11.81
2019-05-03T18:26:44.861Z,11.67
2019-05-03T18:29:11.777Z,11.63
2019-05-03T18:31:38.584Z,11.63
2019-05-03T18:34:18.400Z,11.52
2019-05-03T18:36:34.669Z,11.40
2019-05-03T18:39:02.067Z,11.27
2019-05-03T18:41:30.015Z,11.30
2019-05-03T18:43:58.798Z,11.33
2019-05-03T18:46:27.298Z,11.16
2019-05-03T18:48:55.189Z,11.01
2019-05-03T18:51:22.280Z,11.04
2019-05-03T18:53:48.991Z,11.08
2019-05-03T18:56:16.015Z,11.07
2019-05-03T18:58:44.742Z,10.93
2019-05-03T19:01:14.869Z,10.88
2019-05-03T19:03:45.091Z,10.78
2019-05-03T19:06:14.115Z,10.70
2019-05-03T19:08:40.998Z,10.60
2019-05-03T19:11:11.582Z,10.45
2019-05-03T19:13:41.606Z,9.94
2019-05-03T19:16:10.566Z,9.68
2019-05-03T19:18:39.275Z,9.21
2019-05-03T19:21:06.016Z,9.03
2019-05-03T19:23:32.972Z,9.34
2019-05-03T19:25:59.988Z,9.47
2019-05-03T19:28:26.926Z,9.59
2019-05-03T19:30:55.092Z,9.37
2019-05-03T19:33:21.982Z,9.48
2019-05-03T19:35:48.865Z,9.22
2019-05-03T19:38:15.846Z,9.19
2019-05-03T19:40:42.443Z,9.16
2019-05-03T19:43:09.182Z,9.03
2019-05-03T19:45:35.793Z,9.12
2019-05-03T19:48:03.387Z,8.95
2019-05-03T19:50:29.960Z,8.73
2019-05-03T19:52:58.635Z,8.67
2019-05-03T19:55:25.665Z,8.51
2019-05-03T19:57:54.831Z,8.61
2019-05-03T20:00:25.557Z,8.42
2019-05-03T20:02:54.693Z,8.65
2019-05-03T20:05:25.253Z,8.64
2019-05-03T20:07:57.117Z,8.03
2019-05-03T20:10:25.409Z,7.68
2019-05-03T20:12:52.950Z,7.48
2019-05-03T20:15:20.654Z,7.45
2019-05-03T20:17:56.561Z,7.34
2019-05-03T20:20:16.709Z,7.13
2019-05-03T20:22:45.445Z,7.05
2019-05-03T20:25:15.182Z,6.86
2019-05-03T20:27:44.381Z,6.76
2019-05-03T20:30:15.001Z,6.85
2019-05-03T20:32:42.554Z,6.82
2019-05-03T20:35:18.123Z,6.58
2019-05-03T20:37:39.341Z,6.94
2019-05-03T20:40:06.767Z,6.97
2019-05-03T20:42:35.789Z,6.72
2019-05-03T20:45:05.469Z,6.56
2019-05-03T20:47:35.423Z,6.21
2019-05-03T20:50:07.389Z,6.11
2019-05-03T20:52:35.202Z,6.07
2019-05-03T20:55:04.758Z,5.98
2019-05-03T20:57:31.811Z,6.01
2019-05-03T20:59:58.545Z,5.91
2019-05-03T21:02:25.387Z,5.80
2019-05-03T21:04:52.234Z,5.60
2019-05-03T21:07:19.139Z,5.45
2019-05-03T21:09:45.866Z,5.42
2019-05-03T21:12:14.594Z,5.38
2019-05-03T21:14:41.266Z,5.25
2019-05-03T21:17:09.862Z,5.35
2019-05-03T21:19:38.411Z,5.25
2019-05-03T21:22:10.234Z,5.05
2019-05-03T21:24:40.307Z,4.94
2019-05-03T21:27:07.011Z,4.99
2019-05-03T21:29:35.806Z,4.90
2019-05-03T21:32:04.508Z,4.80
2019-05-03T21:34:31.301Z,4.70
2019-05-03T21:36:57.911Z,4.56
2019-05-03T21:39:25.874Z,4.55
2019-05-03T21:41:52.508Z,4.51
2019-05-03T21:44:21.164Z,4.26
2019-05-03T21:46:49.712Z,4.46
2019-05-03T21:49:18.208Z,4.45
2019-05-03T21:51:45.054Z,4.39
2019-05-03T21:54:12.271Z,4.40
2019-05-03T21:56:39.005Z,4.11
2019-05-03T21:59:05.766Z,3.94
2019-05-03T22:01:37.446Z,3.88
2019-05-03T22:04:04.517Z,3.89
2019-05-03T22:06:31.254Z,3.86
2019-05-03T22:08:58.404Z,3.95
2019-05-03T22:11:25.438Z,3.92
2019-05-03T22:13:56.841Z,3.75
2019-05-03T22:16:24.906Z,3.71
2019-05-03T22:18:51.681Z,3.72
2019-05-03T22:21:20.475Z,3.84
2019-05-03T22:23:49.336Z,3.78
2019-05-03T22:26:16.208Z,3.95
2019-05-03T22:28:44.444Z,3.96
2019-05-03T22:31:11.294Z,3.88
2019-05-03T22:33:37.969Z,3.79
2019-05-03T22:36:08.611Z,3.74
2019-05-03T22:38:36.370Z,3.82
2019-05-03T22:41:01.822Z,3.72
2019-05-03T22:43:28.533Z,3.65
2019-05-03T22:45:55.206Z,3.75
2019-05-03T22:48:21.996Z,3.68
2019-05-03T22:50:48.574Z,3.73
2019-05-03T22:53:15.194Z,3.51
2019-05-03T22:55:41.906Z,3.60
2019-05-03T22:58:09.776Z,3.67
2019-05-03T23:00:36.330Z,3.70
2019-05-03T23:03:03.227Z,3.68
2019-05-03T23:05:30.029Z,3.62
2019-05-03T23:07:56.601Z,3.32
2019-05-03T23:10:25.531Z,3.17
2019-05-03T23:12:51.783Z,3.06
2019-05-03T23:15:18.528Z,3.16
2019-05-03T23:17:45.222Z,3.14
2019-05-03T23:20:15.039Z,3.13
2019-05-03T23:22:41.836Z,3.19
2019-05-03T23:25:09.225Z,3.20
2019-05-03T23:27:36.586Z,3.03
2019-05-03T23:30:05.116Z,3.09
2019-05-03T23:32:34.930Z,2.90
2019-05-03T23:35:04.948Z,2.90
2019-05-03T23:37:32.014Z,3.02
2019-05-03T23:39:58.658Z,3.18
2019-05-03T23:42:25.229Z,3.00
2019-05-03T23:44:51.883Z,3.07
2019-05-03T23:47:20.444Z,2.95
2019-05-03T23:49:47.130Z,3.07
2019-05-03T23:52:17.759Z,2.97
2019-05-03T23:54:44.339Z,2.92
2019-05-03T23:57:10.930Z,2.92
2019-05-03T23:59:39.120Z,2.85
